CheckWX is a tool to help pilots better visualize weather data.  It is not intended as a substitute for an official pre-flight weather briefing.

21:00:46 UTC

LFMO TAF
Orange-Caritat (BA 115) Air Base Airport
Orange/Caritat, France
TAF LFMO 232000Z 2321/2421 20008KT CAVOK PROB30 TEMPO 2404/2408 4000 BR

Feb-23@
21:00 UTC

Feb-23 @ 21:00 UTC

Feb-24@
21:00 UTC

Feb-24 @ 21:00 UTC

TAF LFMO 232000Z 2321/2421 20008KT CAVOK
Wind
  • 200° at 8 KTS
Conditions
No significant weather
Cloud Levels
  • No significant clouds

Feb-24@
04:00 UTC

Feb-24 @ 04:00 UTC

Feb-24@
08:00 UTC

Feb-24 @ 08:00 UTC

PROB30 TEMPO 2404/2408 4000 BR

Temporary - 30% Likelihood

Temporary - 30% Likelihood during this time.

Conditions
Mist